Time;durP1;ratioP1;P1;durP2;ratioP2;P2;SDS_P1;SDS_P2;PMS_P1;PMS_P2;Temp;Humidity;BMP_temperature;BMP_pressure;BME280_temperature;BME280_humidity;BME280_pressure;Samples;Min_cycle;Max_cycle;Signal;HPM_P1;HPM_P2
2023/05/24 06:43:21;;;;;;;;;;;;;;;;;;5111718;27;19978;-67
2023/05/24 06:45:47;;;;;;;;;;;;;;;;;;5111641;28;19959;-67
2023/05/24 06:48:12;;;;;;;;;;;;;;;;;;5111298;28;19955;-67
2023/05/24 06:50:38;;;;;;;;;;;;;;;;;;5111480;28;19955;-67
2023/05/24 06:53:04;;;;;;;;;;;;;;;;;;5111189;28;19955;-67
2023/05/24 06:55:30;;;;;;;;;;;;;;;;;;5111195;28;19959;-67
2023/05/24 06:57:56;;;;;;;;;;;;;;;;;;5111174;28;19986;-67
2023/05/24 07:00:22;;;;;;;;;;;;;;;;;;5111364;28;19962;-68
2023/05/24 07:02:48;;;;;;;;;;;;;;;;;;5111066;28;19955;-68
2023/05/24 07:05:14;;;;;;;;;;;;;;;;;;5111280;28;19955;-68
2023/05/24 07:07:41;;;;;;;;;;;;;;;;;;5111219;28;20050;-68
2023/05/24 07:10:07;;;;;;;;;;;;;;;;;;5110938;28;19955;-67
2023/05/24 07:12:32;;;;;;;;;;;;;;;;;;5111343;28;20316;-67
2023/05/24 07:14:58;;;;;;;;;;;;;;;;;;5110758;28;20400;-67
2023/05/24 07:17:25;;;;;;;;;;;;;;;;;;5110747;28;19955;-67
2023/05/24 07:19:51;;;;;;;;;;;;;;;;;;5110975;28;19959;-67
2023/05/24 07:22:17;;;;;;;;;;;;;;;;;;5110677;28;20050;-67
2023/05/24 07:24:43;;;;;;;;;;;;;;;;;;5110630;28;20395;-68
2023/05/24 07:27:08;;;;;;;;;;;;;;;;;;5110803;28;20008;-65
2023/05/24 07:29:35;;;;;;;;;;;;;;;;;;5110819;28;19962;-64
2023/05/24 07:32:01;;;;;;;;;;;;;;;;;;5110448;28;20368;-64
2023/05/24 07:34:28;;;;;;;;;;;;;;;;;;5098158;28;19975;-65
2023/05/24 07:36:55;;;;;;;;;;;;;;;;;;5090576;28;19955;-65
2023/05/24 07:39:22;;;;;;;;;;;;;;;;;;5090024;28;19978;-65
2023/05/24 07:41:48;;;;;;;;;;;;;;;;;;5089780;28;19992;-65
2023/05/24 07:44:14;;;;;;;;;;;;;;;;;;5076679;28;19955;-64
2023/05/24 07:46:40;;;;;;;;;;;;;;;;;;5076333;28;20549;-65
2023/05/24 07:49:06;;;;;;;;;;;;;;;;;;5076332;28;19969;-65
2023/05/24 07:51:32;;;;;;;;;;;;;;;;;;5076465;28;19975;-65
2023/05/24 07:53:58;;;;;;;;;;;;;;;;;;5076248;28;19966;-65
2023/05/24 07:56:25;;;;;;;;;;;;;;;;;;5076203;28;19955;-65
2023/05/24 07:58:51;;;;;;;;;;;;;;;;;;5076183;28;20467;-66
2023/05/24 08:01:19;;;;;;;;;;;;;;;;;;5076617;28;19955;-70
2023/05/24 08:03:46;;;;;;;;;;;;;;;;;;5076024;28;19956;-65
2023/05/24 08:06:12;;;;;;;;;;;;;;;;;;5076299;28;20372;-65
2023/05/24 08:08:38;;;;;;;;;;;;;;;;;;5075918;28;20412;-65
2023/05/24 08:11:04;;;;;;;;;;;;;;;;;;5076110;28;20002;-65
2023/05/24 08:13:30;;;;;;;;;;;;;;;;;;5075909;28;19959;-65
2023/05/24 08:15:57;;;;;;;;;;;;;;;;;;5076075;28;19955;-65
2023/05/24 08:18:23;;;;;;;;;;;;;;;;;;5075839;28;20459;-68
2023/05/24 08:20:49;;;;;;;;;;;;;;;;;;5076268;28;19955;-66
2023/05/24 08:23:14;;;;;;;;;;;;;;;;;;5075672;28;19956;-65
2023/05/24 08:25:40;;;;;;;;;;;;;;;;;;5075634;28;20050;-65
2023/05/24 08:28:07;;;;;;;;;;;;;;;;;;5075902;28;19955;-64
2023/05/24 08:30:33;;;;;;;;;;;;;;;;;;5075508;28;19955;-64
2023/05/24 08:32:59;;;;;;;;;;;;;;;;;;5075427;28;19978;-65
2023/05/24 08:35:24;;;;;;;;;;;;;;;;;;5075454;28;19985;-64
2023/05/24 08:37:50;;;;;;;;;;;;;;;;;;5075938;28;19955;-64
2023/05/24 08:40:17;;;;;;;;;;;;;;;;;;5075392;28;20492;-64
2023/05/24 08:42:43;;;;;;;;;;;;;;;;;;5075253;28;20014;-64
2023/05/24 08:45:09;;;;;;;;;;;;;;;;;;5075539;28;19993;-64
2023/05/24 08:47:35;;;;;;;;;;;;;;;;;;5075190;28;19995;-64
2023/05/24 08:50:01;;;;;;;;;;;;;;;;;;5075196;28;20423;-64
2023/05/24 08:52:27;;;;;;;;;;;;;;;;;;5075031;28;19975;-65
2023/05/24 08:54:53;;;;;;;;;;;;;;;;;;5074346;28;19955;-64
2023/05/24 08:57:19;;;;;;;;;;;;;;;;;;5075301;28;19956;-64
2023/05/24 08:59:45;;;;;;;;;;;;;;;;;;5074896;28;20392;-64
2023/05/24 09:02:10;;;;;;;;;;;;;;;;;;5074862;28;19965;-64
2023/05/24 09:04:36;;;;;;;;;;;;;;;;;;5075093;28;20328;-65
2023/05/24 09:07:02;;;;;;;;;;;;;;;;;;5074802;28;19963;-65
2023/05/24 09:09:28;;;;;;;;;;;;;;;;;;5075280;28;20328;-64
2023/05/24 09:11:54;;;;;;;;;;;;;;;;;;5074880;28;19974;-64
2023/05/24 09:14:20;;;;;;;;;;;;;;;;;;5074866;28;20513;-65
2023/05/24 09:16:46;;;;;;;;;;;;;;;;;;5074593;28;20073;-64
2023/05/24 09:19:12;;;;;;;;;;;;;;;;;;5074805;28;20004;-64
2023/05/24 09:21:39;;;;;;;;;;;;;;;;;;5074595;28;19955;-64
2023/05/24 09:24:04;;;;;;;;;;;;;;;;;;5074731;28;20409;-64
2023/05/24 09:26:30;;;;;;;;;;;;;;;;;;5074414;28;19966;-64
2023/05/24 09:28:56;;;;;;;;;;;;;;;;;;5074377;28;20002;-65
2023/05/24 09:31:22;;;;;;;;;;;;;;;;;;5074493;28;20024;-64
2023/05/24 09:33:48;;;;;;;;;;;;;;;;;;5074392;28;20022;-64
2023/05/24 09:36:14;;;;;;;;;;;;;;;;;;5074749;28;19956;-65
2023/05/24 09:38:41;;;;;;;;;;;;;;;;;;5074453;28;19959;-64
2023/05/24 09:41:07;;;;;;;;;;;;;;;;;;5074166;28;20363;-64
2023/05/24 09:43:33;;;;;;;;;;;;;;;;;;5074093;28;19959;-64
2023/05/24 09:45:59;;;;;;;;;;;;;;;;;;5074093;28;19956;-64
2023/05/24 09:48:25;;;;;;;;;;;;;;;;;;5073997;28;19956;-65
2023/05/24 09:50:51;;;;;;;;;;;;;;;;;;5073973;28;20440;-64
2023/05/24 09:53:18;;;;;;;;;;;;;;;;;;5074204;28;19955;-64
2023/05/24 09:55:44;;;;;;;;;;;;;;;;;;5073889;28;20056;-65
2023/05/24 09:58:11;;;;;;;;;;;;;;;;;;5074232;28;19967;-64
2023/05/24 10:00:38;;;;;;;;;;;;;;;;;;5073876;28;19955;-64
2023/05/24 10:03:06;;;;;;;;;;;;;;;;;;5073763;28;19958;-64
2023/05/24 10:05:31;;;;;;;;;;;;;;;;;;5073853;28;20001;-64
2023/05/24 10:07:58;;;;;;;;;;;;;;;;;;5073737;28;19985;-64
2023/05/24 10:10:24;;;;;;;;;;;;;;;;;;5073996;28;19958;-65
2023/05/24 10:12:50;;;;;;;;;;;;;;;;;;5073642;28;20406;-64
2023/05/24 10:15:16;;;;;;;;;;;;;;;;;;5073690;28;19963;-64
2023/05/24 10:17:42;;;;;;;;;;;;;;;;;;5073678;28;20406;-65
2023/05/24 10:20:10;;;;;;;;;;;;;;;;;;5073686;28;19955;-65
2023/05/24 10:22:36;;;;;;;;;;;;;;;;;;5073959;28;19961;-65
2023/05/24 10:25:04;;;;;;;;;;;;;;;;;;5073613;28;20335;-65
2023/05/24 10:27:30;;;;;;;;;;;;;;;;;;5073645;28;19960;-65
2023/05/24 10:29:58;;;;;;;;;;;;;;;;;;5073596;28;19956;-65
2023/05/24 10:32:24;;;;;;;;;;;;;;;;;;5073764;28;20387;-64
2023/05/24 10:34:50;;;;;;;;;;;;;;;;;;5073520;28;19971;-64
2023/05/24 10:37:16;;;;;;;;;;;;;;;;;;5074022;28;20435;-64
2023/05/24 10:39:43;;;;;;;;;;;;;;;;;;5074039;28;19956;-65
2023/05/24 10:42:09;;;;;;;;;;;;;;;;;;5071882;28;19996;-64
2023/05/24 10:44:36;;;;;;;;;;;;;;;;;;5073416;28;19956;-64
2023/05/24 10:47:02;;;;;;;;;;;;;;;;;;5073384;28;19955;-64
2023/05/24 10:49:28;;;;;;;;;;;;;;;;;;5073342;28;19959;-64
2023/05/24 10:51:54;;;;;;;;;;;;;;;;;;5073548;28;19975;-64
2023/05/24 10:54:20;;;;;;;;;;;;;;;;;;5073317;28;19999;-64
2023/05/24 10:56:46;;;;;;;;;;;;;;;;;;5073309;28;19954;-64
2023/05/24 10:59:12;;;;;;;;;;;;;;;;;;5073517;28;19963;-63
2023/05/24 11:01:38;;;;;;;;;;;;;;;;;;5073197;28;20369;-64
2023/05/24 11:04:04;;;;;;;;;;;;;;;;;;5073751;28;19975;-64
2023/05/24 11:06:32;;;;;;;;;;;;;;;;;;5073189;28;19967;-65
2023/05/24 11:08:57;;;;;;;;;;;;;;;;;;5073449;28;20322;-64
2023/05/24 11:11:23;;;;;;;;;;;;;;;;;;5073620;28;19975;-64
2023/05/24 11:13:49;;;;;;;;;;;;;;;;;;5073159;28;19956;-66
2023/05/24 11:16:15;;;;;;;;;;;;;;;;;;5073859;28;19956;-67
2023/05/24 11:18:41;;;;;;;;;;;;;;;;;;5075150;28;20065;-66
2023/05/24 11:21:07;;;;;;;;;;;;;;;;;;5077356;28;20430;-66
2023/05/24 11:23:33;;;;;;;;;;;;;;;;;;5077061;28;19963;-66
2023/05/24 11:25:59;;;;;;;;;;;;;;;;;;5077017;28;19956;-66
2023/05/24 11:28:25;;;;;;;;;;;;;;;;;;5076686;28;19955;-67
2023/05/24 11:30:51;;;;;;;;;;;;;;;;;;5077084;28;19965;-67
2023/05/24 11:33:17;;;;;;;;;;;;;;;;;;5076566;28;19955;-66
2023/05/24 11:35:43;;;;;;;;;;;;;;;;;;5076865;28;19966;-66
2023/05/24 11:38:11;;;;;;;;;;;;;;;;;;5077035;28;19955;-66
2023/05/24 11:40:37;;;;;;;;;;;;;;;;;;5076458;28;20002;-67
2023/05/24 11:43:03;;;;;;;;;;;;;;;;;;5076049;28;19995;-67
2023/05/24 11:45:30;;;;;;;;;;;;;;;;;;5076618;28;19955;-65
2023/05/24 11:47:56;;;;;;;;;;;;;;;;;;5076373;28;20517;-67
2023/05/24 11:50:22;;;;;;;;;;;;;;;;;;5076271;28;19973;-66
2023/05/24 11:52:48;;;;;;;;;;;;;;;;;;5076525;28;19976;-66
2023/05/24 11:55:15;;;;;;;;;;;;;;;;;;5076208;28;20478;-67
2023/05/24 11:57:41;;;;;;;;;;;;;;;;;;5076196;28;19978;-66
2023/05/24 12:00:15;;;;;;;;;;;;;;;;;;5076688;28;20405;-67
2023/05/24 12:02:41;;;;;;;;;;;;;;;;;;5076126;28;19963;-67
2023/05/24 12:05:08;;;;;;;;;;;;;;;;;;5076627;28;20385;-67
2023/05/24 12:07:35;;;;;;;;;;;;;;;;;;5076046;28;19962;-67
2023/05/24 12:10:03;;;;;;;;;;;;;;;;;;5076282;28;19956;-66
2023/05/24 12:12:28;;;;;;;;;;;;;;;;;;5075825;28;20440;-67
2023/05/24 12:14:54;;;;;;;;;;;;;;;;;;5075886;28;19962;-66
2023/05/24 12:17:20;;;;;;;;;;;;;;;;;;5076095;28;20012;-66
2023/05/24 12:19:46;;;;;;;;;;;;;;;;;;5076054;28;19963;-66
2023/05/24 12:22:12;;;;;;;;;;;;;;;;;;5076026;28;20324;-67
2023/05/24 12:24:38;;;;;;;;;;;;;;;;;;5075689;28;19955;-66
2023/05/24 12:27:07;;;;;;;;;;;;;;;;;;5075962;28;20329;-66
2023/05/24 12:29:33;;;;;;;;;;;;;;;;;;5075398;28;19995;-66
2023/05/24 12:31:59;;;;;;;;;;;;;;;;;;5075777;28;20463;-67
2023/05/24 12:34:26;;;;;;;;;;;;;;;;;;5075447;28;20002;-66
2023/05/24 12:36:52;;;;;;;;;;;;;;;;;;5076001;28;19961;-67
2023/05/24 12:39:18;;;;;;;;;;;;;;;;;;5075362;28;19956;-66
2023/05/24 12:41:44;;;;;;;;;;;;;;;;;;5075184;28;19991;-67
2023/05/24 12:44:10;;;;;;;;;;;;;;;;;;5075884;28;20447;-67
2023/05/24 12:46:36;;;;;;;;;;;;;;;;;;5075511;28;19963;-66
2023/05/24 12:49:03;;;;;;;;;;;;;;;;;;5075211;28;19956;-67
2023/05/24 12:51:29;;;;;;;;;;;;;;;;;;5075008;28;20082;-67
2023/05/24 12:53:55;;;;;;;;;;;;;;;;;;5075087;28;19999;-67
2023/05/24 12:56:23;;;;;;;;;;;;;;;;;;5075058;28;19955;-67
2023/05/24 12:58:49;;;;;;;;;;;;;;;;;;5074996;28;19956;-66
2023/05/24 13:01:15;;;;;;;;;;;;;;;;;;5075182;28;20442;-67
2023/05/24 13:03:41;;;;;;;;;;;;;;;;;;5074878;28;19978;-67
2023/05/24 13:06:07;;;;;;;;;;;;;;;;;;5075422;28;19997;-67
2023/05/24 13:08:33;;;;;;;;;;;;;;;;;;5075076;28;19958;-66
2023/05/24 13:10:59;;;;;;;;;;;;;;;;;;5075209;28;19974;-66
2023/05/24 13:13:25;;;;;;;;;;;;;;;;;;5074673;28;19955;-67
2023/05/24 13:15:51;;;;;;;;;;;;;;;;;;5074931;28;19958;-67
2023/05/24 13:18:17;;;;;;;;;;;;;;;;;;5074872;28;20424;-67
2023/05/24 13:20:42;;;;;;;;;;;;;;;;;;5074801;28;19962;-67
2023/05/24 13:23:08;;;;;;;;;;;;;;;;;;5074510;28;20070;-67
2023/05/24 13:25:34;;;;;;;;;;;;;;;;;;5074695;28;19967;-67
2023/05/24 13:28:00;;;;;;;;;;;;;;;;;;5074387;28;19960;-67
2023/05/24 13:30:26;;;;;;;;;;;;;;;;;;5074559;28;19956;-66
2023/05/24 13:32:52;;;;;;;;;;;;;;;;;;5073899;28;20066;-67
2023/05/24 13:35:18;;;;;;;;;;;;;;;;;;5074188;28;19999;-66
2023/05/24 13:37:45;;;;;;;;;;;;;;;;;;5074982;28;19956;-66
2023/05/24 13:40:11;;;;;;;;;;;;;;;;;;5074096;28;20029;-67
2023/05/24 13:42:36;;;;;;;;;;;;;;;;;;5073824;28;20028;-66
2023/05/24 13:45:02;;;;;;;;;;;;;;;;;;5074383;28;19991;-67
2023/05/24 13:47:28;;;;;;;;;;;;;;;;;;5074340;28;19956;-66
2023/05/24 13:49:55;;;;;;;;;;;;;;;;;;5074299;28;19963;-66
2023/05/24 13:52:21;;;;;;;;;;;;;;;;;;5073935;28;20010;-66
2023/05/24 13:54:47;;;;;;;;;;;;;;;;;;5074229;28;19977;-67
2023/05/24 13:57:13;;;;;;;;;;;;;;;;;;5073920;28;20008;-67
2023/05/24 13:59:39;;;;;;;;;;;;;;;;;;5074152;28;19955;-67
2023/05/24 14:02:05;;;;;;;;;;;;;;;;;;5073879;28;19956;-66
2023/05/24 14:04:31;;;;;;;;;;;;;;;;;;5074109;28;19964;-66
2023/05/24 14:06:56;;;;;;;;;;;;;;;;;;5074346;28;20001;-66
2023/05/24 14:09:24;;;;;;;;;;;;;;;;;;5073793;28;19994;-66
2023/05/24 14:11:50;;;;;;;;;;;;;;;;;;5073922;28;20082;-66
2023/05/24 14:14:16;;;;;;;;;;;;;;;;;;5073992;28;19994;-66
2023/05/24 14:16:42;;;;;;;;;;;;;;;;;;5073939;28;20424;-66
2023/05/24 14:19:08;;;;;;;;;;;;;;;;;;5073716;28;19961;-66
2023/05/24 14:21:35;;;;;;;;;;;;;;;;;;5073673;28;20482;-66
2023/05/24 14:24:01;;;;;;;;;;;;;;;;;;5073667;28;19959;-66
2023/05/24 14:26:27;;;;;;;;;;;;;;;;;;5073576;28;19963;-66
2023/05/24 14:28:53;;;;;;;;;;;;;;;;;;5073589;28;20348;-66
2023/05/24 14:31:19;;;;;;;;;;;;;;;;;;5073472;28;19976;-67
2023/05/24 14:33:45;;;;;;;;;;;;;;;;;;5073730;28;19972;-66
2023/05/24 14:36:10;;;;;;;;;;;;;;;;;;5073777;28;20041;-66
2023/05/24 14:38:37;;;;;;;;;;;;;;;;;;5074198;28;19960;-67
2023/05/24 14:41:03;;;;;;;;;;;;;;;;;;5073603;28;19956;-67
2023/05/24 14:43:29;;;;;;;;;;;;;;;;;;5073465;28;20360;-67
2023/05/24 14:45:55;;;;;;;;;;;;;;;;;;5073961;28;19974;-67
2023/05/24 14:48:21;;;;;;;;;;;;;;;;;;5073379;28;19956;-66
2023/05/24 14:50:47;;;;;;;;;;;;;;;;;;5073602;28;20042;-67
2023/05/24 14:53:13;;;;;;;;;;;;;;;;;;5074763;28;19993;-67
2023/05/24 14:55:39;;;;;;;;;;;;;;;;;;5077337;28;20009;-67
2023/05/24 14:58:07;;;;;;;;;;;;;;;;;;5077864;28;19962;-66
2023/05/24 15:00:33;;;;;;;;;;;;;;;;;;5077592;28;20013;-66
2023/05/24 15:02:59;;;;;;;;;;;;;;;;;;5077268;28;20427;-66
2023/05/24 15:05:25;;;;;;;;;;;;;;;;;;5077182;28;19955;-67
2023/05/24 15:07:51;;;;;;;;;;;;;;;;;;5077376;28;20026;-67
2023/05/24 15:10:17;;;;;;;;;;;;;;;;;;5077337;28;20453;-67
2023/05/24 15:12:43;;;;;;;;;;;;;;;;;;5077496;28;19976;-67
2023/05/24 15:15:09;;;;;;;;;;;;;;;;;;5076937;28;19986;-67
2023/05/24 15:17:35;;;;;;;;;;;;;;;;;;5077519;28;20048;-67
2023/05/24 15:20:01;;;;;;;;;;;;;;;;;;5076881;28;20025;-66
2023/05/24 15:22:27;;;;;;;;;;;;;;;;;;5077369;28;20416;-66
2023/05/24 15:24:53;;;;;;;;;;;;;;;;;;5076751;28;20009;-67
2023/05/24 15:27:19;;;;;;;;;;;;;;;;;;5076966;28;19961;-67
2023/05/24 15:29:45;;;;;;;;;;;;;;;;;;5076945;28;20039;-66
2023/05/24 15:32:11;;;;;;;;;;;;;;;;;;5076581;28;20014;-66
2023/05/24 15:34:36;;;;;;;;;;;;;;;;;;5077400;28;20490;-67
2023/05/24 15:37:02;;;;;;;;;;;;;;;;;;5077325;28;19970;-66
2023/05/24 15:39:28;;;;;;;;;;;;;;;;;;5076537;28;19955;-66
2023/05/24 15:41:55;;;;;;;;;;;;;;;;;;5076399;28;20081;-67
2023/05/24 15:44:21;;;;;;;;;;;;;;;;;;5076671;28;19967;-67
2023/05/24 15:46:47;;;;;;;;;;;;;;;;;;5076629;28;19955;-67
2023/05/24 15:49:13;;;;;;;;;;;;;;;;;;5076627;28;19959;-66
2023/05/24 15:51:39;;;;;;;;;;;;;;;;;;5076532;28;19982;-67
2023/05/24 15:54:05;;;;;;;;;;;;;;;;;;5076325;28;19956;-67
2023/05/24 15:56:31;;;;;;;;;;;;;;;;;;5076524;28;20048;-66
2023/05/24 15:58:56;;;;;;;;;;;;;;;;;;5076210;28;20327;-66
2023/05/24 16:01:22;;;;;;;;;;;;;;;;;;5076190;28;19956;-67
2023/05/24 16:03:48;;;;;;;;;;;;;;;;;;5075927;28;20025;-66
2023/05/24 16:06:14;;;;;;;;;;;;;;;;;;5076029;28;19963;-67
2023/05/24 16:08:40;;;;;;;;;;;;;;;;;;5074707;28;19998;-67
2023/05/24 16:11:07;;;;;;;;;;;;;;;;;;5076424;28;20000;-67
2023/05/24 16:13:33;;;;;;;;;;;;;;;;;;5075965;28;20004;-66
2023/05/24 16:15:59;;;;;;;;;;;;;;;;;;5076424;28;20437;-66
2023/05/24 16:18:30;;;;;;;;;;;;;;;;;;5075850;28;20045;-67
2023/05/24 16:20:56;;;;;;;;;;;;;;;;;;5075498;28;20453;-67
2023/05/24 16:23:22;;;;;;;;;;;;;;;;;;5075787;28;20014;-66
2023/05/24 16:25:48;;;;;;;;;;;;;;;;;;5076262;28;20358;-66
2023/05/24 16:28:14;;;;;;;;;;;;;;;;;;5075669;28;19955;-66
2023/05/24 16:30:40;;;;;;;;;;;;;;;;;;5075856;28;20298;-66
2023/05/24 16:33:06;;;;;;;;;;;;;;;;;;5075416;28;20027;-67
2023/05/24 16:35:32;;;;;;;;;;;;;;;;;;5075747;28;19963;-67
2023/05/24 16:37:58;;;;;;;;;;;;;;;;;;5075965;28;19955;-66
2023/05/24 16:40:23;;;;;;;;;;;;;;;;;;5075696;28;19963;-66
2023/05/24 16:42:51;;;;;;;;;;;;;;;;;;5074975;28;20014;-67
2023/05/24 16:45:17;;;;;;;;;;;;;;;;;;5075640;28;20049;-67
2023/05/24 16:47:43;;;;;;;;;;;;;;;;;;5075266;28;20451;-66
2023/05/24 16:50:13;;;;;;;;;;;;;;;;;;5075258;28;19962;-67
2023/05/24 16:52:39;;;;;;;;;;;;;;;;;;5075360;28;20017;-66
2023/05/24 16:55:05;;;;;;;;;;;;;;;;;;5075383;28;19961;-66
2023/05/24 16:57:31;;;;;;;;;;;;;;;;;;5075014;28;19959;-67
2023/05/24 16:59:57;;;;;;;;;;;;;;;;;;5075026;28;19956;-66
2023/05/24 17:02:23;;;;;;;;;;;;;;;;;;5075762;28;20401;-67
2023/05/24 17:04:49;;;;;;;;;;;;;;;;;;5074937;28;19959;-67
2023/05/24 17:07:15;;;;;;;;;;;;;;;;;;5074804;28;19956;-67
2023/05/24 17:09:40;;;;;;;;;;;;;;;;;;5074805;28;19960;-66
2023/05/24 17:12:06;;;;;;;;;;;;;;;;;;5075218;28;20029;-66
2023/05/24 17:14:32;;;;;;;;;;;;;;;;;;5074666;28;19963;-65
2023/05/24 17:16:58;;;;;;;;;;;;;;;;;;5073894;28;19998;-66
2023/05/24 17:19:25;;;;;;;;;;;;;;;;;;5074885;28;19960;-66
2023/05/24 17:21:51;;;;;;;;;;;;;;;;;;5074603;28;19958;-67
2023/05/24 17:24:17;;;;;;;;;;;;;;;;;;5074780;28;20329;-66
2023/05/24 17:26:44;;;;;;;;;;;;;;;;;;5074453;28;20007;-67
2023/05/24 17:29:10;;;;;;;;;;;;;;;;;;5074331;28;19958;-67
2023/05/24 17:31:36;;;;;;;;;;;;;;;;;;5074357;28;19976;-66
2023/05/24 17:34:02;;;;;;;;;;;;;;;;;;5074305;28;19971;-66
2023/05/24 17:36:28;;;;;;;;;;;;;;;;;;5074310;28;19955;-66
2023/05/24 17:38:54;;;;;;;;;;;;;;;;;;5074823;28;19985;-67
2023/05/24 17:41:20;;;;;;;;;;;;;;;;;;5074000;28;20074;-67
2023/05/24 17:43:45;;;;;;;;;;;;;;;;;;5074723;28;20397;-66
2023/05/24 17:46:12;;;;;;;;;;;;;;;;;;5074458;28;19959;-66
2023/05/24 17:48:38;;;;;;;;;;;;;;;;;;5074441;28;20371;-67
2023/05/24 17:51:03;;;;;;;;;;;;;;;;;;5074790;28;20009;-66
2023/05/24 17:53:32;;;;;;;;;;;;;;;;;;5074003;28;19962;-67
2023/05/24 17:55:58;;;;;;;;;;;;;;;;;;5074583;28;19956;-67
2023/05/24 17:58:24;;;;;;;;;;;;;;;;;;5073945;28;19963;-66
2023/05/24 18:00:49;;;;;;;;;;;;;;;;;;5073907;28;20034;-65
2023/05/24 18:03:15;;;;;;;;;;;;;;;;;;5074445;28;19955;-66
2023/05/24 18:05:41;;;;;;;;;;;;;;;;;;5073840;28;19956;-67
2023/05/24 18:08:08;;;;;;;;;;;;;;;;;;5074133;28;19981;-66
2023/05/24 18:10:34;;;;;;;;;;;;;;;;;;5073800;28;19955;-66
2023/05/24 18:13:00;;;;;;;;;;;;;;;;;;5074027;28;20412;-66
2023/05/24 18:15:26;;;;;;;;;;;;;;;;;;5074550;28;20003;-66
2023/05/24 18:17:52;;;;;;;;;;;;;;;;;;5073979;28;20050;-67
2023/05/24 18:20:18;;;;;;;;;;;;;;;;;;5073682;28;20002;-66
2023/05/24 18:22:44;;;;;;;;;;;;;;;;;;5073898;28;19987;-66
2023/05/24 18:25:10;;;;;;;;;;;;;;;;;;5073931;28;19956;-67
2023/05/24 18:27:35;;;;;;;;;;;;;;;;;;5073758;28;20421;-66
2023/05/24 18:30:02;;;;;;;;;;;;;;;;;;5073610;28;19956;-67
2023/05/24 18:32:28;;;;;;;;;;;;;;;;;;5073578;28;20010;-66
2023/05/24 18:34:55;;;;;;;;;;;;;;;;;;5074002;28;19982;-66
2023/05/24 18:37:21;;;;;;;;;;;;;;;;;;5074008;28;19959;-67
2023/05/24 18:39:47;;;;;;;;;;;;;;;;;;5073781;28;19955;-66
2023/05/24 18:42:13;;;;;;;;;;;;;;;;;;5073143;28;20361;-66
2023/05/24 18:44:39;;;;;;;;;;;;;;;;;;5073447;28;19962;-67
2023/05/24 18:47:05;;;;;;;;;;;;;;;;;;5073358;28;19964;-66
2023/05/24 18:49:32;;;;;;;;;;;;;;;;;;5073658;28;19990;-66
2023/05/24 18:51:59;;;;;;;;;;;;;;;;;;5073348;28;19982;-66
2023/05/24 18:54:25;;;;;;;;;;;;;;;;;;5073401;28;19956;-65
2023/05/24 18:56:51;;;;;;;;;;;;;;;;;;5073320;28;19965;-66
2023/05/24 18:59:17;;;;;;;;;;;;;;;;;;5073306;28;19956;-66
2023/05/24 19:01:43;;;;;;;;;;;;;;;;;;5073274;28;19962;-66
2023/05/24 19:04:09;;;;;;;;;;;;;;;;;;5073301;28;19962;-66
2023/05/24 19:06:35;;;;;;;;;;;;;;;;;;5073256;28;20370;-66
2023/05/24 19:09:01;;;;;;;;;;;;;;;;;;5073221;28;20047;-67
2023/05/24 19:11:27;;;;;;;;;;;;;;;;;;5073170;28;20349;-66
2023/05/24 19:13:53;;;;;;;;;;;;;;;;;;5073436;28;19955;-66
2023/05/24 19:16:19;;;;;;;;;;;;;;;;;;5073401;28;19956;-67
2023/05/24 19:18:44;;;;;;;;;;;;;;;;;;5073091;28;20006;-66
2023/05/24 19:21:10;;;;;;;;;;;;;;;;;;5073333;28;19966;-66
2023/05/24 19:23:36;;;;;;;;;;;;;;;;;;5073069;28;19955;-66
2023/05/24 19:26:02;;;;;;;;;;;;;;;;;;5073310;28;19970;-66
2023/05/24 19:28:28;;;;;;;;;;;;;;;;;;5072990;28;19956;-66
2023/05/24 19:30:54;;;;;;;;;;;;;;;;;;5072918;28;19956;-66
2023/05/24 19:33:20;;;;;;;;;;;;;;;;;;5073137;28;20086;-65
2023/05/24 19:35:46;;;;;;;;;;;;;;;;;;5073212;28;19963;-67
2023/05/24 19:38:16;;;;;;;;;;;;;;;;;;5073514;28;20017;-67
2023/05/24 19:40:42;;;;;;;;;;;;;;;;;;5077234;28;19959;-66
2023/05/24 19:43:08;;;;;;;;;;;;;;;;;;5076069;28;19999;-65
2023/05/24 19:45:33;;;;;;;;;;;;;;;;;;5076408;28;19962;-66
2023/05/24 19:47:59;;;;;;;;;;;;;;;;;;5076433;28;20047;-66
2023/05/24 19:50:25;;;;;;;;;;;;;;;;;;5076724;28;19956;-66
2023/05/24 19:52:51;;;;;;;;;;;;;;;;;;5076300;28;19980;-66
2023/05/24 19:55:17;;;;;;;;;;;;;;;;;;5076840;28;20404;-66
2023/05/24 19:57:43;;;;;;;;;;;;;;;;;;5076281;28;19998;-66
2023/05/24 20:00:11;;;;;;;;;;;;;;;;;;5076484;28;20096;-66
2023/05/24 20:02:37;;;;;;;;;;;;;;;;;;5076437;28;19965;-66
2023/05/24 20:05:02;;;;;;;;;;;;;;;;;;5076174;28;19995;-66
2023/05/24 20:07:28;;;;;;;;;;;;;;;;;;5076647;28;19956;-67
2023/05/24 20:09:54;;;;;;;;;;;;;;;;;;5076321;28;20026;-67
2023/05/24 20:12:20;;;;;;;;;;;;;;;;;;5075927;28;20027;-66
2023/05/24 20:14:46;;;;;;;;;;;;;;;;;;5075964;28;20417;-66
2023/05/24 20:17:12;;;;;;;;;;;;;;;;;;5076475;28;20424;-66
2023/05/24 20:19:39;;;;;;;;;;;;;;;;;;5075907;28;19963;-67
2023/05/24 20:22:05;;;;;;;;;;;;;;;;;;5076138;28;20355;-66
2023/05/24 20:24:31;;;;;;;;;;;;;;;;;;5076293;28;19960;-66
2023/05/24 20:26:57;;;;;;;;;;;;;;;;;;5075999;28;19954;-67
2023/05/24 20:29:23;;;;;;;;;;;;;;;;;;5075650;28;19955;-66
2023/05/24 20:31:49;;;;;;;;;;;;;;;;;;5075553;28;19982;-67
2023/05/24 20:34:14;;;;;;;;;;;;;;;;;;5075722;28;19970;-66
2023/05/24 20:36:40;;;;;;;;;;;;;;;;;;5075500;28;20050;-66
2023/05/24 20:39:06;;;;;;;;;;;;;;;;;;5076772;28;20026;-67
2023/05/24 20:41:32;;;;;;;;;;;;;;;;;;5075255;28;19991;-66
2023/05/24 20:43:58;;;;;;;;;;;;;;;;;;5075391;28;19987;-66
2023/05/24 20:46:24;;;;;;;;;;;;;;;;;;5075611;28;19962;-67
2023/05/24 20:48:52;;;;;;;;;;;;;;;;;;5075547;28;19960;-66
2023/05/24 20:51:18;;;;;;;;;;;;;;;;;;5075422;28;19983;-67
2023/05/24 20:53:44;;;;;;;;;;;;;;;;;;5075394;28;20464;-66
2023/05/24 20:56:10;;;;;;;;;;;;;;;;;;5075704;28;19956;-66
2023/05/24 20:58:38;;;;;;;;;;;;;;;;;;5075124;28;19955;-67
2023/05/24 21:01:04;;;;;;;;;;;;;;;;;;5075278;28;20042;-66
2023/05/24 21:03:30;;;;;;;;;;;;;;;;;;5074965;28;19958;-66
2023/05/24 21:05:56;;;;;;;;;;;;;;;;;;5074915;28;19954;-66
2023/05/24 21:08:22;;;;;;;;;;;;;;;;;;5074895;28;19979;-66
2023/05/24 21:10:48;;;;;;;;;;;;;;;;;;5075398;28;20291;-65
2023/05/24 21:13:14;;;;;;;;;;;;;;;;;;5074684;28;19975;-66
2023/05/24 21:15:40;;;;;;;;;;;;;;;;;;5074997;28;19960;-66
2023/05/24 21:18:06;;;;;;;;;;;;;;;;;;5075231;28;20321;-65
2023/05/24 21:20:32;;;;;;;;;;;;;;;;;;5075198;28;19956;-67
2023/05/24 21:22:58;;;;;;;;;;;;;;;;;;5074865;28;19962;-67
2023/05/24 21:25:24;;;;;;;;;;;;;;;;;;5075092;28;20050;-66
2023/05/24 21:27:49;;;;;;;;;;;;;;;;;;5074463;28;20009;-66
2023/05/24 21:30:15;;;;;;;;;;;;;;;;;;5074467;28;19962;-67
2023/05/24 21:32:41;;;;;;;;;;;;;;;;;;5074618;28;20062;-66
2023/05/24 21:35:07;;;;;;;;;;;;;;;;;;5074635;28;20117;-66
2023/05/24 21:37:33;;;;;;;;;;;;;;;;;;5074861;28;19999;-67
2023/05/24 21:39:59;;;;;;;;;;;;;;;;;;5074787;28;20401;-66
2023/05/24 21:42:25;;;;;;;;;;;;;;;;;;5074025;28;20006;-65
2023/05/24 21:44:51;;;;;;;;;;;;;;;;;;5074420;28;20355;-65
2023/05/24 21:47:17;;;;;;;;;;;;;;;;;;5074123;28;19956;-66
2023/05/24 21:49:43;;;;;;;;;;;;;;;;;;5074332;28;19991;-66
2023/05/24 21:52:09;;;;;;;;;;;;;;;;;;5074289;28;20021;-66
2023/05/24 21:54:35;;;;;;;;;;;;;;;;;;5074004;28;19955;-66
2023/05/24 21:57:01;;;;;;;;;;;;;;;;;;5073957;28;20056;-66
2023/05/24 21:59:26;;;;;;;;;;;;;;;;;;5073978;28;19955;-67
2023/05/24 22:01:52;;;;;;;;;;;;;;;;;;5073500;28;20036;-66
2023/05/24 22:04:18;;;;;;;;;;;;;;;;;;5074155;28;19955;-66
2023/05/24 22:06:44;;;;;;;;;;;;;;;;;;5074087;28;20404;-65
2023/05/24 22:09:10;;;;;;;;;;;;;;;;;;5073864;28;19956;-67
2023/05/24 22:11:36;;;;;;;;;;;;;;;;;;5073731;28;20464;-66
2023/05/24 22:14:02;;;;;;;;;;;;;;;;;;5074062;28;19962;-66
2023/05/24 22:16:28;;;;;;;;;;;;;;;;;;5073754;28;19962;-66
2023/05/24 22:18:54;;;;;;;;;;;;;;;;;;5073970;28;19954;-65
2023/05/24 22:21:23;;;;;;;;;;;;;;;;;;5073939;28;19954;-66
2023/05/24 22:23:49;;;;;;;;;;;;;;;;;;5073922;28;19955;-66
2023/05/24 22:26:15;;;;;;;;;;;;;;;;;;5073590;28;19962;-66
2023/05/24 22:28:41;;;;;;;;;;;;;;;;;;5074177;28;19959;-66
2023/05/24 22:31:07;;;;;;;;;;;;;;;;;;5073479;28;20329;-65
2023/05/24 22:33:33;;;;;;;;;;;;;;;;;;5073920;28;19972;-66
2023/05/24 22:36:00;;;;;;;;;;;;;;;;;;5073767;28;19965;-67
2023/05/24 22:38:26;;;;;;;;;;;;;;;;;;5074628;28;19958;-66
2023/05/24 22:40:52;;;;;;;;;;;;;;;;;;5073779;28;19955;-65
2023/05/24 22:43:18;;;;;;;;;;;;;;;;;;5073460;28;20012;-65
2023/05/24 22:45:44;;;;;;;;;;;;;;;;;;5073403;28;19955;-65
2023/05/24 22:48:10;;;;;;;;;;;;;;;;;;5073992;28;19955;-66
2023/05/24 22:50:36;;;;;;;;;;;;;;;;;;5073397;28;19955;-66
2023/05/24 22:53:01;;;;;;;;;;;;;;;;;;5073345;28;20027;-67
2023/05/24 22:55:27;;;;;;;;;;;;;;;;;;5073632;28;20025;-66
2023/05/24 22:57:53;;;;;;;;;;;;;;;;;;5073327;28;19998;-66
2023/05/24 23:00:19;;;;;;;;;;;;;;;;;;5073544;28;19955;-66
2023/05/24 23:02:45;;;;;;;;;;;;;;;;;;5073252;28;20029;-66
2023/05/24 23:05:11;;;;;;;;;;;;;;;;;;5073880;28;20367;-66
2023/05/24 23:07:38;;;;;;;;;;;;;;;;;;5074065;28;20034;-66
2023/05/24 23:10:04;;;;;;;;;;;;;;;;;;5073287;28;19955;-65
2023/05/24 23:12:30;;;;;;;;;;;;;;;;;;5073355;28;20144;-65
2023/05/24 23:14:57;;;;;;;;;;;;;;;;;;5076001;28;19963;-66
2023/05/24 23:17:23;;;;;;;;;;;;;;;;;;5077272;28;19959;-66
2023/05/24 23:19:52;;;;;;;;;;;;;;;;;;5076980;28;20421;-66